sensor_id;sensor_type;location;lat;lon;timestamp;pressure;altitude;pressure_sealevel;temperature
71630;BMP280;59479;51.902;8.212;2024-03-06T00:01:31;101118.00;;;9.61
71630;BMP280;59479;51.902;8.212;2024-03-06T00:03:57;101117.19;;;9.62
71630;BMP280;59479;51.902;8.212;2024-03-06T00:06:22;101130.56;;;9.64
71630;BMP280;59479;51.902;8.212;2024-03-06T00:08:49;101136.50;;;9.70
71630;BMP280;59479;51.902;8.212;2024-03-06T00:11:15;101136.50;;;9.72
71630;BMP280;59479;51.902;8.212;2024-03-06T00:13:40;101141.56;;;9.75
71630;BMP280;59479;51.902;8.212;2024-03-06T00:16:06;101149.84;;;9.68
71630;BMP280;59479;51.902;8.212;2024-03-06T00:18:31;101144.78;;;9.62
71630;BMP280;59479;51.902;8.212;2024-03-06T00:20:56;101143.16;;;9.65
71630;BMP280;59479;51.902;8.212;2024-03-06T00:23:22;101140.63;;;9.64
71630;BMP280;59479;51.902;8.212;2024-03-06T00:25:47;101149.81;;;9.62
71630;BMP280;59479;51.902;8.212;2024-03-06T00:28:12;101150.66;;;9.67
71630;BMP280;59479;51.902;8.212;2024-03-06T00:30:38;101141.38;;;9.60
71630;BMP280;59479;51.902;8.212;2024-03-06T00:33:03;101153.13;;;9.61
71630;BMP280;59479;51.902;8.212;2024-03-06T00:35:28;101151.41;;;9.57
71630;BMP280;59479;51.902;8.212;2024-03-06T00:37:54;101158.16;;;9.61
71630;BMP280;59479;51.902;8.212;2024-03-06T00:40:20;101159.09;;;9.69
71630;BMP280;59479;51.902;8.212;2024-03-06T00:42:45;101159.94;;;9.71
71630;BMP280;59479;51.902;8.212;2024-03-06T00:45:11;101151.59;;;9.75
71630;BMP280;59479;51.902;8.212;2024-03-06T00:47:37;101162.41;;;9.68
71630;BMP280;59479;51.902;8.212;2024-03-06T00:50:02;101170.75;;;9.68
71630;BMP280;59479;51.902;8.212;2024-03-06T00:52:28;101169.13;;;9.72
71630;BMP280;59479;51.902;8.212;2024-03-06T00:54:53;101160.78;;;9.73
71630;BMP280;59479;51.902;8.212;2024-03-06T00:57:19;101168.28;;;9.70
71630;BMP280;59479;51.902;8.212;2024-03-06T00:59:44;101174.13;;;9.67
71630;BMP280;59479;51.902;8.212;2024-03-06T01:02:09;101183.28;;;9.67
71630;BMP280;59479;51.902;8.212;2024-03-06T01:04:35;101190.78;;;9.63
71630;BMP280;59479;51.902;8.212;2024-03-06T01:07:00;101184.94;;;9.62
71630;BMP280;59479;51.902;8.212;2024-03-06T01:09:26;101188.31;;;9.64
71630;BMP280;59479;51.902;8.212;2024-03-06T01:11:52;101187.47;;;9.66
71630;BMP280;59479;51.902;8.212;2024-03-06T01:14:17;101185.81;;;9.65
71630;BMP280;59479;51.902;8.212;2024-03-06T01:16:43;101189.19;;;9.69
71630;BMP280;59479;51.902;8.212;2024-03-06T01:19:08;101181.69;;;9.72
71630;BMP280;59479;51.902;8.212;2024-03-06T01:21:34;101191.75;;;9.73
71630;BMP280;59479;51.902;8.212;2024-03-06T01:24:00;101190.91;;;9.73
71630;BMP280;59479;51.902;8.212;2024-03-06T01:26:26;101181.69;;;9.72
71630;BMP280;59479;51.902;8.212;2024-03-06T01:28:51;101190.88;;;9.70
71630;BMP280;59479;51.902;8.212;2024-03-06T01:31:17;101196.72;;;9.69
71630;BMP280;59479;51.902;8.212;2024-03-06T01:33:42;101200.91;;;9.70
71630;BMP280;59479;51.902;8.212;2024-03-06T01:36:07;101195.06;;;9.71
71630;BMP280;59479;51.902;8.212;2024-03-06T01:38:33;101194.25;;;9.70
71630;BMP280;59479;51.902;8.212;2024-03-06T01:40:58;101195.88;;;9.68
71630;BMP280;59479;51.902;8.212;2024-03-06T01:43:25;101194.25;;;9.73
71630;BMP280;59479;51.902;8.212;2024-03-06T01:45:51;101198.50;;;9.76
71630;BMP280;59479;51.902;8.212;2024-03-06T01:48:20;101194.25;;;9.70
71630;BMP280;59479;51.902;8.212;2024-03-06T01:50:46;101197.50;;;9.65
71630;BMP280;59479;51.902;8.212;2024-03-06T01:53:13;101200.00;;;9.62
71630;BMP280;59479;51.902;8.212;2024-03-06T01:55:39;101200.84;;;9.64
71630;BMP280;59479;51.902;8.212;2024-03-06T01:58:04;101209.25;;;9.67
71630;BMP280;59479;51.902;8.212;2024-03-06T02:00:31;101206.75;;;9.67
71630;BMP280;59479;51.902;8.212;2024-03-06T02:02:57;101208.38;;;9.64
71630;BMP280;59479;51.902;8.212;2024-03-06T02:05:22;101214.22;;;9.64
71630;BMP280;59479;51.902;8.212;2024-03-06T02:07:48;101225.94;;;9.64
71630;BMP280;59479;51.902;8.212;2024-03-06T02:10:14;101226.75;;;9.63
71630;BMP280;59479;51.902;8.212;2024-03-06T02:12:40;101225.94;;;9.64
71630;BMP280;59479;51.902;8.212;2024-03-06T02:15:06;101223.44;;;9.67
71630;BMP280;59479;51.902;8.212;2024-03-06T02:17:32;101223.53;;;9.71
71630;BMP280;59479;51.902;8.212;2024-03-06T02:19:57;101220.19;;;9.71
71630;BMP280;59479;51.902;8.212;2024-03-06T02:22:25;101229.34;;;9.67
71630;BMP280;59479;51.902;8.212;2024-03-06T02:24:51;101225.09;;;9.65
71630;BMP280;59479;51.902;8.212;2024-03-06T02:27:16;101220.09;;;9.65
71630;BMP280;59479;51.902;8.212;2024-03-06T02:29:42;101213.47;;;9.70
71630;BMP280;59479;51.902;8.212;2024-03-06T02:32:07;101220.19;;;9.71
71630;BMP280;59479;51.902;8.212;2024-03-06T02:34:33;101220.09;;;9.65
71630;BMP280;59479;51.902;8.212;2024-03-06T02:36:59;101222.59;;;9.65
71630;BMP280;59479;51.902;8.212;2024-03-06T02:39:24;101222.56;;;9.63
71630;BMP280;59479;51.902;8.212;2024-03-06T02:41:50;101220.94;;;9.64
71630;BMP280;59479;51.902;8.212;2024-03-06T02:44:15;101215.06;;;9.65
71630;BMP280;59479;51.902;8.212;2024-03-06T02:46:46;101215.88;;;9.61
71630;BMP280;59479;51.902;8.212;2024-03-06T02:49:12;101215.88;;;9.61
71630;BMP280;59479;51.902;8.212;2024-03-06T02:51:37;101225.88;;;9.60
71630;BMP280;59479;51.902;8.212;2024-03-06T02:54:03;101227.50;;;9.56
71630;BMP280;59479;51.902;8.212;2024-03-06T02:56:28;101227.56;;;9.59
71630;BMP280;59479;51.902;8.212;2024-03-06T02:58:53;101233.38;;;9.58
71630;BMP280;59479;51.902;8.212;2024-03-06T03:01:20;101230.06;;;9.59
71630;BMP280;59479;51.902;8.212;2024-03-06T03:03:45;101237.63;;;9.63
71630;BMP280;59479;51.902;8.212;2024-03-06T03:06:12;101236.78;;;9.62
71630;BMP280;59479;51.902;8.212;2024-03-06T03:08:38;101235.91;;;9.60
71630;BMP280;59479;51.902;8.212;2024-03-06T03:11:04;101245.06;;;9.56
71630;BMP280;59479;51.902;8.212;2024-03-06T03:13:30;101235.03;;;9.56
71630;BMP280;59479;51.902;8.212;2024-03-06T03:15:56;101234.25;;;9.62
71630;BMP280;59479;51.902;8.212;2024-03-06T03:18:22;101244.25;;;9.59
71630;BMP280;59479;51.902;8.212;2024-03-06T03:20:47;101239.31;;;9.63
71630;BMP280;59479;51.902;8.212;2024-03-06T03:23:12;101243.50;;;9.63
71630;BMP280;59479;51.902;8.212;2024-03-06T03:25:40;101247.69;;;9.62
71630;BMP280;59479;51.902;8.212;2024-03-06T03:28:06;101251.84;;;9.63
71630;BMP280;59479;51.902;8.212;2024-03-06T03:30:31;101252.69;;;9.63
71630;BMP280;59479;51.902;8.212;2024-03-06T03:32:57;101253.56;;;9.64
71630;BMP280;59479;51.902;8.212;2024-03-06T03:35:23;101250.22;;;9.65
71630;BMP280;59479;51.902;8.212;2024-03-06T03:37:53;101252.75;;;9.66
71630;BMP280;59479;51.902;8.212;2024-03-06T03:40:19;101256.06;;;9.64
71630;BMP280;59479;51.902;8.212;2024-03-06T03:42:44;101263.50;;;9.58
71630;BMP280;59479;51.902;8.212;2024-03-06T03:45:10;101263.53;;;9.61
71630;BMP280;59479;51.902;8.212;2024-03-06T03:47:35;101257.72;;;9.62
71630;BMP280;59479;51.902;8.212;2024-03-06T03:50:00;101262.66;;;9.58
71630;BMP280;59479;51.902;8.212;2024-03-06T03:52:26;101269.41;;;9.62
71630;BMP280;59479;51.902;8.212;2024-03-06T03:54:51;101265.19;;;9.59
71630;BMP280;59479;51.902;8.212;2024-03-06T03:57:17;101271.06;;;9.61
71630;BMP280;59479;51.902;8.212;2024-03-06T03:59:43;101265.25;;;9.62
71630;BMP280;59479;51.902;8.212;2024-03-06T04:02:08;101269.38;;;9.60
71630;BMP280;59479;51.902;8.212;2024-03-06T04:04:33;101270.19;;;9.58
71630;BMP280;59479;51.902;8.212;2024-03-06T04:06:59;101268.50;;;9.58
71630;BMP280;59479;51.902;8.212;2024-03-06T04:09:27;101275.28;;;9.62
71630;BMP280;59479;51.902;8.212;2024-03-06T04:11:52;101271.94;;;9.63
71630;BMP280;59479;51.902;8.212;2024-03-06T04:14:18;101273.56;;;9.60
71630;BMP280;59479;51.902;8.212;2024-03-06T04:16:45;101266.84;;;9.59
71630;BMP280;59479;51.902;8.212;2024-03-06T04:19:11;101273.50;;;9.57
71630;BMP280;59479;51.902;8.212;2024-03-06T04:21:41;101273.56;;;9.60
71630;BMP280;59479;51.902;8.212;2024-03-06T04:24:07;101276.03;;;9.58
71630;BMP280;59479;51.902;8.212;2024-03-06T04:26:32;101281.09;;;9.60
71630;BMP280;59479;51.902;8.212;2024-03-06T04:28:58;101284.47;;;9.62
71630;BMP280;59479;51.902;8.212;2024-03-06T04:31:23;101280.25;;;9.59
71630;BMP280;59479;51.902;8.212;2024-03-06T04:33:48;101284.44;;;9.60
71630;BMP280;59479;51.902;8.212;2024-03-06T04:36:13;101291.19;;;9.63
71630;BMP280;59479;51.902;8.212;2024-03-06T04:38:39;101291.09;;;9.58
71630;BMP280;59479;51.902;8.212;2024-03-06T04:41:05;101296.84;;;9.51
71630;BMP280;59479;51.902;8.212;2024-03-06T04:43:31;101301.88;;;9.51
71630;BMP280;59479;51.902;8.212;2024-03-06T04:45:57;101298.50;;;9.49
71630;BMP280;59479;51.902;8.212;2024-03-06T04:48:22;101297.66;;;9.50
71630;BMP280;59479;51.902;8.212;2024-03-06T04:50:47;101308.50;;;9.46
71630;BMP280;59479;51.902;8.212;2024-03-06T04:53:13;101302.59;;;9.43
71630;BMP280;59479;51.902;8.212;2024-03-06T04:55:38;101309.91;;;9.29
71630;BMP280;59479;51.902;8.212;2024-03-06T04:58:03;101308.31;;;9.34
71630;BMP280;59479;51.902;8.212;2024-03-06T05:00:30;101312.50;;;9.35
71630;BMP280;59479;51.902;8.212;2024-03-06T05:02:55;101313.38;;;9.37
71630;BMP280;59479;51.902;8.212;2024-03-06T05:05:21;101317.63;;;9.41
71630;BMP280;59479;51.902;8.212;2024-03-06T05:07:47;101321.84;;;9.45
71630;BMP280;59479;51.902;8.212;2024-03-06T05:10:13;101326.91;;;9.48
71630;BMP280;59479;51.902;8.212;2024-03-06T05:12:38;101334.50;;;9.51
71630;BMP280;59479;51.902;8.212;2024-03-06T05:15:04;101333.72;;;9.55
71630;BMP280;59479;51.902;8.212;2024-03-06T05:17:30;101340.44;;;9.56
71630;BMP280;59479;51.902;8.212;2024-03-06T05:19:55;101341.28;;;9.58
71630;BMP280;59479;51.902;8.212;2024-03-06T05:22:21;101340.44;;;9.56
71630;BMP280;59479;51.902;8.212;2024-03-06T05:24:46;101331.16;;;9.51
71630;BMP280;59479;51.902;8.212;2024-03-06T05:27:11;101350.44;;;9.55
71630;BMP280;59479;51.902;8.212;2024-03-06T05:29:41;101343.78;;;9.57
71630;BMP280;59479;51.902;8.212;2024-03-06T05:32:07;101351.28;;;9.55
71630;BMP280;59479;51.902;8.212;2024-03-06T05:34:33;101353.78;;;9.55
71630;BMP280;59479;51.902;8.212;2024-03-06T05:36:59;101355.50;;;9.56
71630;BMP280;59479;51.902;8.212;2024-03-06T05:39:24;101358.84;;;9.57
71630;BMP280;59479;51.902;8.212;2024-03-06T05:41:49;101364.72;;;9.57
71630;BMP280;59479;51.902;8.212;2024-03-06T05:44:15;101374.72;;;9.56
71630;BMP280;59479;51.902;8.212;2024-03-06T05:46:40;101379.75;;;9.56
71630;BMP280;59479;51.902;8.212;2024-03-06T05:49:06;101379.75;;;9.56
71630;BMP280;59479;51.902;8.212;2024-03-06T05:51:31;101382.28;;;9.57
71630;BMP280;59479;51.902;8.212;2024-03-06T05:53:56;101383.94;;;9.57
71630;BMP280;59479;51.902;8.212;2024-03-06T05:56:22;101388.97;;;9.58
71630;BMP280;59479;51.902;8.212;2024-03-06T05:58:47;101383.13;;;9.58
71630;BMP280;59479;51.902;8.212;2024-03-06T06:01:17;101393.97;;;9.57
71630;BMP280;59479;51.902;8.212;2024-03-06T06:03:48;101396.44;;;9.55
71630;BMP280;59479;51.902;8.212;2024-03-06T06:06:17;101395.59;;;9.53
71630;BMP280;59479;51.902;8.212;2024-03-06T06:08:44;101398.13;;;9.55
71630;BMP280;59479;51.902;8.212;2024-03-06T06:11:10;101399.84;;;9.57
71630;BMP280;59479;51.902;8.212;2024-03-06T06:13:36;101399.00;;;9.57
71630;BMP280;59479;51.902;8.212;2024-03-06T06:16:01;101397.34;;;9.57
71630;BMP280;59479;51.902;8.212;2024-03-06T06:18:29;101405.63;;;9.53
71630;BMP280;59479;51.902;8.212;2024-03-06T06:20:56;101406.50;;;9.55
71630;BMP280;59479;51.902;8.212;2024-03-06T06:23:22;101413.13;;;9.52
71630;BMP280;59479;51.902;8.212;2024-03-06T06:25:48;101413.16;;;9.53
71630;BMP280;59479;51.902;8.212;2024-03-06T06:28:13;101415.72;;;9.56
71630;BMP280;59479;51.902;8.212;2024-03-06T06:30:38;101426.53;;;9.54
71630;BMP280;59479;51.902;8.212;2024-03-06T06:33:04;101429.06;;;9.54
71630;BMP280;59479;51.902;8.212;2024-03-06T06:35:30;101418.16;;;9.52
71630;BMP280;59479;51.902;8.212;2024-03-06T06:37:55;101425.69;;;9.53
71630;BMP280;59479;51.902;8.212;2024-03-06T06:40:21;101434.03;;;9.51
71630;BMP280;59479;51.902;8.212;2024-03-06T06:42:48;101434.13;;;9.57
71630;BMP280;59479;51.902;8.212;2024-03-06T06:45:17;101445.00;;;9.56
71630;BMP280;59479;51.902;8.212;2024-03-06T06:47:43;101442.53;;;9.57
71630;BMP280;59479;51.902;8.212;2024-03-06T06:50:09;101439.19;;;9.60
71630;BMP280;59479;51.902;8.212;2024-03-06T06:52:39;101452.56;;;9.59
71630;BMP280;59479;51.902;8.212;2024-03-06T06:55:06;101450.09;;;9.62
71630;BMP280;59479;51.902;8.212;2024-03-06T06:57:32;101455.88;;;9.56
71630;BMP280;59479;51.902;8.212;2024-03-06T06:59:59;101457.56;;;9.56
71630;BMP280;59479;51.902;8.212;2024-03-06T07:02:24;101464.22;;;9.55
71630;BMP280;59479;51.902;8.212;2024-03-06T07:04:50;101465.84;;;9.53
71630;BMP280;59479;51.902;8.212;2024-03-06T07:07:15;101470.13;;;9.57
71630;BMP280;59479;51.902;8.212;2024-03-06T07:09:43;101473.50;;;9.59
71630;BMP280;59479;51.902;8.212;2024-03-06T07:12:09;101475.19;;;9.60
71630;BMP280;59479;51.902;8.212;2024-03-06T07:14:34;101487.69;;;9.59
71630;BMP280;59479;51.902;8.212;2024-03-06T07:17:00;101475.97;;;9.58
71630;BMP280;59479;51.902;8.212;2024-03-06T07:19:25;101482.72;;;9.60
71630;BMP280;59479;51.902;8.212;2024-03-06T07:21:51;101485.28;;;9.63
71630;BMP280;59479;51.902;8.212;2024-03-06T07:24:17;101488.50;;;9.56
71630;BMP280;59479;51.902;8.212;2024-03-06T07:26:43;101497.66;;;9.53
71630;BMP280;59479;51.902;8.212;2024-03-06T07:29:08;101504.38;;;9.55
71630;BMP280;59479;51.902;8.212;2024-03-06T07:31:40;101496.00;;;9.55
71630;BMP280;59479;51.902;8.212;2024-03-06T07:34:07;101499.34;;;9.55
71630;BMP280;59479;51.902;8.212;2024-03-06T07:36:34;101509.50;;;9.61
71630;BMP280;59479;51.902;8.212;2024-03-06T07:39:00;101506.91;;;9.57
71630;BMP280;59479;51.902;8.212;2024-03-06T07:41:26;101499.47;;;9.61
71630;BMP280;59479;51.902;8.212;2024-03-06T07:43:51;101514.41;;;9.55
71630;BMP280;59479;51.902;8.212;2024-03-06T07:46:16;101518.72;;;9.61
71630;BMP280;59479;51.902;8.212;2024-03-06T07:48:42;101520.31;;;9.57
71630;BMP280;59479;51.902;8.212;2024-03-06T07:51:09;101512.81;;;9.60
71630;BMP280;59479;51.902;8.212;2024-03-06T07:53:34;101528.78;;;9.63
71630;BMP280;59479;51.902;8.212;2024-03-06T07:55:59;101523.84;;;9.68
71630;BMP280;59479;51.902;8.212;2024-03-06T07:58:25;101527.22;;;9.70
71630;BMP280;59479;51.902;8.212;2024-03-06T08:00:50;101528.94;;;9.71
71630;BMP280;59479;51.902;8.212;2024-03-06T08:03:18;101533.13;;;9.72
71630;BMP280;59479;51.902;8.212;2024-03-06T08:05:43;101536.50;;;9.72
71630;BMP280;59479;51.902;8.212;2024-03-06T08:08:09;101545.72;;;9.75
71630;BMP280;59479;51.902;8.212;2024-03-06T08:10:34;101538.25;;;9.78
71630;BMP280;59479;51.902;8.212;2024-03-06T08:13:00;101552.41;;;9.74
71630;BMP280;59479;51.902;8.212;2024-03-06T08:15:25;101546.56;;;9.74
71630;BMP280;59479;51.902;8.212;2024-03-06T08:17:50;101551.63;;;9.75
71630;BMP280;59479;51.902;8.212;2024-03-06T08:20:17;101556.69;;;9.80
71630;BMP280;59479;51.902;8.212;2024-03-06T08:22:43;101553.44;;;9.84
71630;BMP280;59479;51.902;8.212;2024-03-06T08:25:10;101556.66;;;9.78
71630;BMP280;59479;51.902;8.212;2024-03-06T08:27:37;101564.97;;;9.74
71630;BMP280;59479;51.902;8.212;2024-03-06T08:30:06;101560.75;;;9.73
71630;BMP280;59479;51.902;8.212;2024-03-06T08:32:34;101566.66;;;9.74
71630;BMP280;59479;51.902;8.212;2024-03-06T08:35:11;101571.75;;;9.80
71630;BMP280;59479;51.902;8.212;2024-03-06T08:37:37;101575.88;;;9.76
71630;BMP280;59479;51.902;8.212;2024-03-06T08:40:03;101576.75;;;9.78
71630;BMP280;59479;51.902;8.212;2024-03-06T08:42:29;101581.06;;;9.84
71630;BMP280;59479;51.902;8.212;2024-03-06T08:44:54;101582.72;;;9.85
71630;BMP280;59479;51.902;8.212;2024-03-06T08:47:20;101591.09;;;9.85
71630;BMP280;59479;51.902;8.212;2024-03-06T08:49:45;101585.31;;;9.88
71630;BMP280;59479;51.902;8.212;2024-03-06T08:52:11;101588.63;;;9.87
71630;BMP280;59479;51.902;8.212;2024-03-06T08:54:36;101586.06;;;9.85
71630;BMP280;59479;51.902;8.212;2024-03-06T08:57:03;101593.63;;;9.87
71630;BMP280;59479;51.902;8.212;2024-03-06T08:59:29;101597.06;;;9.89
71630;BMP280;59479;51.902;8.212;2024-03-06T09:01:55;101597.09;;;9.92
71630;BMP280;59479;51.902;8.212;2024-03-06T09:04:25;101601.34;;;9.93
71630;BMP280;59479;51.902;8.212;2024-03-06T09:06:50;101598.84;;;9.94
71630;BMP280;59479;51.902;8.212;2024-03-06T09:09:16;101603.69;;;9.87
71630;BMP280;59479;51.902;8.212;2024-03-06T09:11:41;101598.66;;;9.87
71630;BMP280;59479;51.902;8.212;2024-03-06T09:14:07;101599.56;;;9.90
71630;BMP280;59479;51.902;8.212;2024-03-06T09:16:34;101600.44;;;9.91
71630;BMP280;59479;51.902;8.212;2024-03-06T09:18:59;101606.34;;;9.93
71630;BMP280;59479;51.902;8.212;2024-03-06T09:21:25;101605.69;;;10.03
71630;BMP280;59479;51.902;8.212;2024-03-06T09:23:50;101610.72;;;10.03
71630;BMP280;59479;51.902;8.212;2024-03-06T09:26:17;101610.81;;;10.08
71630;BMP280;59479;51.902;8.212;2024-03-06T09:28:42;101616.66;;;10.07
71630;BMP280;59479;51.902;8.212;2024-03-06T09:31:08;101614.28;;;10.15
71630;BMP280;59479;51.902;8.212;2024-03-06T09:33:33;101617.75;;;10.21
71630;BMP280;59479;51.902;8.212;2024-03-06T09:35:59;101624.41;;;10.19
71630;BMP280;59479;51.902;8.212;2024-03-06T09:38:24;101626.13;;;10.20
71630;BMP280;59479;51.902;8.212;2024-03-06T09:40:49;101624.56;;;10.28
71630;BMP280;59479;51.902;8.212;2024-03-06T09:43:16;101631.34;;;10.32
71630;BMP280;59479;51.902;8.212;2024-03-06T09:45:44;101630.44;;;10.29
71630;BMP280;59479;51.902;8.212;2024-03-06T09:48:11;101624.69;;;10.34
71630;BMP280;59479;51.902;8.212;2024-03-06T09:50:42;101629.69;;;10.34
71630;BMP280;59479;51.902;8.212;2024-03-06T09:53:12;101626.34;;;10.35
71630;BMP280;59479;51.902;8.212;2024-03-06T09:55:40;101624.75;;;10.39
71630;BMP280;59479;51.902;8.212;2024-03-06T09:58:07;101644.91;;;10.43
71630;BMP280;59479;51.902;8.212;2024-03-06T10:00:36;101647.59;;;10.52
71630;BMP280;59479;51.902;8.212;2024-03-06T10:03:03;101635.91;;;10.54
71630;BMP280;59479;51.902;8.212;2024-03-06T10:05:31;101642.63;;;10.56
71630;BMP280;59479;51.902;8.212;2024-03-06T10:07:59;101641.78;;;10.56
71630;BMP280;59479;51.902;8.212;2024-03-06T10:10:25;101646.88;;;10.59
71630;BMP280;59479;51.902;8.212;2024-03-06T10:12:52;101647.81;;;10.65
71630;BMP280;59479;51.902;8.212;2024-03-06T10:15:17;101640.38;;;10.73
71630;BMP280;59479;51.902;8.212;2024-03-06T10:17:43;101646.28;;;10.76
71630;BMP280;59479;51.902;8.212;2024-03-06T10:20:20;101637.13;;;10.80
71630;BMP280;59479;51.902;8.212;2024-03-06T10:22:53;101651.41;;;10.81
71630;BMP280;59479;51.902;8.212;2024-03-06T10:25:22;101649.00;;;10.88
71630;BMP280;59479;51.902;8.212;2024-03-06T10:28:04;101641.56;;;10.95
71630;BMP280;59479;51.902;8.212;2024-03-06T10:30:31;101644.09;;;10.98
71630;BMP280;59479;51.902;8.212;2024-03-06T10:32:56;101645.03;;;11.02
71630;BMP280;59479;51.902;8.212;2024-03-06T10:35:21;101655.19;;;11.09
71630;BMP280;59479;51.902;8.212;2024-03-06T10:37:48;101646.81;;;11.12
71630;BMP280;59479;51.902;8.212;2024-03-06T10:40:14;101655.91;;;11.02
71630;BMP280;59479;51.902;8.212;2024-03-06T10:42:40;101657.63;;;11.05
71630;BMP280;59479;51.902;8.212;2024-03-06T10:45:11;101661.03;;;11.08
71630;BMP280;59479;51.902;8.212;2024-03-06T10:47:39;101661.97;;;11.16
71630;BMP280;59479;51.902;8.212;2024-03-06T10:50:05;101666.25;;;11.23
71630;BMP280;59479;51.902;8.212;2024-03-06T10:52:36;101660.50;;;11.31
71630;BMP280;59479;51.902;8.212;2024-03-06T10:55:03;101661.41;;;11.33
71630;BMP280;59479;51.902;8.212;2024-03-06T10:57:30;101660.66;;;11.40
71630;BMP280;59479;51.902;8.212;2024-03-06T10:59:56;101668.22;;;11.43
71630;BMP280;59479;51.902;8.212;2024-03-06T11:02:24;101664.03;;;11.42
71630;BMP280;59479;51.902;8.212;2024-03-06T11:04:50;101666.56;;;11.44
71630;BMP280;59479;51.902;8.212;2024-03-06T11:07:16;101669.16;;;11.50
71630;BMP280;59479;51.902;8.212;2024-03-06T11:09:42;101675.84;;;11.46
71630;BMP280;59479;51.902;8.212;2024-03-06T11:12:07;101683.22;;;11.36
71630;BMP280;59479;51.902;8.212;2024-03-06T11:14:36;101669.06;;;11.42
71630;BMP280;59479;51.902;8.212;2024-03-06T11:17:03;101671.59;;;11.44
71630;BMP280;59479;51.902;8.212;2024-03-06T11:19:30;101673.34;;;11.48
71630;BMP280;59479;51.902;8.212;2024-03-06T11:21:56;101667.59;;;11.58
71630;BMP280;59479;51.902;8.212;2024-03-06T11:24:22;101680.28;;;11.67
71630;BMP280;59479;51.902;8.212;2024-03-06T11:26:56;101676.16;;;11.69
71630;BMP280;59479;51.902;8.212;2024-03-06T11:29:28;101682.72;;;11.58
71630;BMP280;59479;51.902;8.212;2024-03-06T11:32:00;101684.47;;;11.65
71630;BMP280;59479;51.902;8.212;2024-03-06T11:34:26;101687.13;;;11.76
71630;BMP280;59479;51.902;8.212;2024-03-06T11:36:57;101685.34;;;11.65
71630;BMP280;59479;51.902;8.212;2024-03-06T11:39:22;101696.31;;;11.72
71630;BMP280;59479;51.902;8.212;2024-03-06T11:41:49;101695.41;;;11.65
71630;BMP280;59479;51.902;8.212;2024-03-06T11:44:19;101692.91;;;11.68
71630;BMP280;59479;51.902;8.212;2024-03-06T11:46:48;101695.47;;;11.71
71630;BMP280;59479;51.902;8.212;2024-03-06T11:49:21;101686.34;;;11.79
71630;BMP280;59479;51.902;8.212;2024-03-06T11:51:49;101701.50;;;11.83
71630;BMP280;59479;51.902;8.212;2024-03-06T11:54:15;101691.38;;;11.79
71630;BMP280;59479;51.902;8.212;2024-03-06T11:56:44;101689.78;;;11.85
71630;BMP280;59479;51.902;8.212;2024-03-06T11:59:10;101690.69;;;11.92
71630;BMP280;59479;51.902;8.212;2024-03-06T12:01:37;101696.63;;;12.00
71630;BMP280;59479;51.902;8.212;2024-03-06T12:04:03;101691.63;;;12.03
71630;BMP280;59479;51.902;8.212;2024-03-06T12:06:32;101701.72;;;12.03
71630;BMP280;59479;51.902;8.212;2024-03-06T12:08:58;101698.38;;;12.02
71630;BMP280;59479;51.902;8.212;2024-03-06T12:11:23;101696.69;;;12.04
71630;BMP280;59479;51.902;8.212;2024-03-06T12:13:51;101692.59;;;12.12
71630;BMP280;59479;51.902;8.212;2024-03-06T12:16:16;101695.19;;;12.21
71630;BMP280;59479;51.902;8.212;2024-03-06T12:18:42;101690.22;;;12.30
71630;BMP280;59479;51.902;8.212;2024-03-06T12:21:07;101697.84;;;12.33
71630;BMP280;59479;51.902;8.212;2024-03-06T12:23:33;101702.06;;;12.35
71630;BMP280;59479;51.902;8.212;2024-03-06T12:26:08;101695.31;;;12.33
71630;BMP280;59479;51.902;8.212;2024-03-06T12:28:38;101706.28;;;12.38
71630;BMP280;59479;51.902;8.212;2024-03-06T12:31:04;101694.53;;;12.40
71630;BMP280;59479;51.902;8.212;2024-03-06T12:33:30;101702.16;;;12.46
71630;BMP280;59479;51.902;8.212;2024-03-06T12:36:04;101698.84;;;12.51
71630;BMP280;59479;51.902;8.212;2024-03-06T12:38:30;101698.84;;;12.50
71630;BMP280;59479;51.902;8.212;2024-03-06T12:40:56;101705.44;;;12.37
71630;BMP280;59479;51.902;8.212;2024-03-06T12:43:21;101702.19;;;12.47
71630;BMP280;59479;51.902;8.212;2024-03-06T12:45:47;101701.34;;;12.48
71630;BMP280;59479;51.902;8.212;2024-03-06T12:48:12;101703.97;;;12.58
71630;BMP280;59479;51.902;8.212;2024-03-06T12:50:38;101704.75;;;12.50
71630;BMP280;59479;51.902;8.212;2024-03-06T12:53:03;101695.50;;;12.51
71630;BMP280;59479;51.902;8.212;2024-03-06T12:55:30;101703.84;;;12.48
71630;BMP280;59479;51.902;8.212;2024-03-06T12:58:00;101702.31;;;12.60
71630;BMP280;59479;51.902;8.212;2024-03-06T13:00:27;101697.25;;;12.59
71630;BMP280;59479;51.902;8.212;2024-03-06T13:02:52;101705.69;;;12.62
71630;BMP280;59479;51.902;8.212;2024-03-06T13:05:18;101698.94;;;12.58
71630;BMP280;59479;51.902;8.212;2024-03-06T13:07:44;101700.63;;;12.61
71630;BMP280;59479;51.902;8.212;2024-03-06T13:10:10;101701.50;;;12.64
71630;BMP280;59479;51.902;8.212;2024-03-06T13:12:37;101695.53;;;12.54
71630;BMP280;59479;51.902;8.212;2024-03-06T13:15:03;101696.41;;;12.61
71630;BMP280;59479;51.902;8.212;2024-03-06T13:17:29;101701.44;;;12.61
71630;BMP280;59479;51.902;8.212;2024-03-06T13:19:55;101694.75;;;12.60
71630;BMP280;59479;51.902;8.212;2024-03-06T13:22:21;101700.56;;;12.57
71630;BMP280;59479;51.902;8.212;2024-03-06T13:24:47;101700.66;;;12.65
71630;BMP280;59479;51.902;8.212;2024-03-06T13:27:13;101702.38;;;12.71
71630;BMP280;59479;51.902;8.212;2024-03-06T13:29:38;101701.53;;;12.67
71630;BMP280;59479;51.902;8.212;2024-03-06T13:32:06;101707.41;;;12.68
71630;BMP280;59479;51.902;8.212;2024-03-06T13:34:32;101705.75;;;12.73
71630;BMP280;59479;51.902;8.212;2024-03-06T13:36:58;101710.84;;;12.76
71630;BMP280;59479;51.902;8.212;2024-03-06T13:39:23;101703.28;;;12.77
71630;BMP280;59479;51.902;8.212;2024-03-06T13:41:48;101705.81;;;12.79
71630;BMP280;59479;51.902;8.212;2024-03-06T13:44:14;101701.69;;;12.82
71630;BMP280;59479;51.902;8.212;2024-03-06T13:46:39;101709.16;;;12.76
71630;BMP280;59479;51.902;8.212;2024-03-06T13:49:04;101705.88;;;12.82
71630;BMP280;59479;51.902;8.212;2024-03-06T13:51:30;101705.06;;;12.84
71630;BMP280;59479;51.902;8.212;2024-03-06T13:53:55;101716.72;;;12.73
71630;BMP280;59479;51.902;8.212;2024-03-06T13:56:21;101711.69;;;12.73
71630;BMP280;59479;51.902;8.212;2024-03-06T13:58:46;101716.72;;;12.76